Terminal Aerodrome Forecast
Issued by NWS Charleston, WV

Current Version | Previous Version | Graphics & Text | Print | Product List | Glossary On
Versions: 1 2 3 4 5 6 7 8 9 10 11 12 13 14 15 16 17 18 19 20 21 22 23 24 25 26 27 28 29 30 31 32
000
FTUS41 KRLX 280559 CCA
TAFCRW
TAF COR
KCRW 280559Z 2806/2906 00000KT 6SM -RA BKN090
     FM280900 00000KT 3SM BR BKN003
     FM281300 00000KT 6SM BR BKN090
     FM281500 00000KT P6SM VCTS OVC035CB
     FM281800 25004KT 3SM TSRA BR OVC025CB
     FM282300 VRB03KT 4SM TSRA BR OVC020CB=

USA.gov is the U.S. government's official web portal to all federal, state and local government web resources and services.